sensor_id;sensor_type;location;lat;lon;timestamp;temperature;humidity
11762;DHT22;5938;47.098;15.474;2024-02-15T00:00:41;-0.40;99.90
11762;DHT22;5938;47.098;15.474;2024-02-15T00:04:46;-0.60;99.90
11762;DHT22;5938;47.098;15.474;2024-02-15T00:08:49;-0.40;99.90
11762;DHT22;5938;47.098;15.474;2024-02-15T00:12:55;-0.40;99.90
11762;DHT22;5938;47.098;15.474;2024-02-15T00:16:59;-0.70;99.90
11762;DHT22;5938;47.098;15.474;2024-02-15T00:21:02;-0.60;99.90
11762;DHT22;5938;47.098;15.474;2024-02-15T00:25:06;-0.50;99.90
11762;DHT22;5938;47.098;15.474;2024-02-15T00:29:12;-0.60;99.90
11762;DHT22;5938;47.098;15.474;2024-02-15T00:33:15;-0.40;99.90
11762;DHT22;5938;47.098;15.474;2024-02-15T00:37:20;-0.90;99.90
11762;DHT22;5938;47.098;15.474;2024-02-15T00:41:23;-0.70;99.90
11762;DHT22;5938;47.098;15.474;2024-02-15T00:45:28;-0.50;99.90
11762;DHT22;5938;47.098;15.474;2024-02-15T00:49:34;-0.50;99.90
11762;DHT22;5938;47.098;15.474;2024-02-15T00:53:38;-0.40;99.90
11762;DHT22;5938;47.098;15.474;2024-02-15T00:57:41;-0.40;99.90
11762;DHT22;5938;47.098;15.474;2024-02-15T01:01:46;-0.40;99.90
11762;DHT22;5938;47.098;15.474;2024-02-15T01:05:50;-0.50;99.90
11762;DHT22;5938;47.098;15.474;2024-02-15T01:09:54;-0.50;99.90
11762;DHT22;5938;47.098;15.474;2024-02-15T01:13:57;-0.30;99.90
11762;DHT22;5938;47.098;15.474;2024-02-15T01:18:03;-0.10;99.90
11762;DHT22;5938;47.098;15.474;2024-02-15T01:22:06;-0.10;99.90
11762;DHT22;5938;47.098;15.474;2024-02-15T01:26:10;0.10;99.90
11762;DHT22;5938;47.098;15.474;2024-02-15T01:30:15;0.20;99.90
11762;DHT22;5938;47.098;15.474;2024-02-15T01:34:19;0.30;99.90
11762;DHT22;5938;47.098;15.474;2024-02-15T01:38:23;0.30;99.90
11762;DHT22;5938;47.098;15.474;2024-02-15T01:42:27;0.60;99.90
11762;DHT22;5938;47.098;15.474;2024-02-15T01:46:31;0.30;99.90
11762;DHT22;5938;47.098;15.474;2024-02-15T01:50:36;0.30;99.90
11762;DHT22;5938;47.098;15.474;2024-02-15T01:54:40;0.30;99.90
11762;DHT22;5938;47.098;15.474;2024-02-15T01:58:45;0.30;99.90
11762;DHT22;5938;47.098;15.474;2024-02-15T02:02:49;0.40;99.90
11762;DHT22;5938;47.098;15.474;2024-02-15T02:06:53;0.40;99.90
11762;DHT22;5938;47.098;15.474;2024-02-15T02:11:02;0.30;99.90
11762;DHT22;5938;47.098;15.474;2024-02-15T02:15:07;0.30;99.90
11762;DHT22;5938;47.098;15.474;2024-02-15T02:19:10;1.00;99.90
11762;DHT22;5938;47.098;15.474;2024-02-15T02:23:16;0.60;99.90
11762;DHT22;5938;47.098;15.474;2024-02-15T02:27:22;1.00;99.90
11762;DHT22;5938;47.098;15.474;2024-02-15T02:31:26;1.00;99.90
11762;DHT22;5938;47.098;15.474;2024-02-15T02:35:29;1.10;99.90
11762;DHT22;5938;47.098;15.474;2024-02-15T02:39:35;1.20;99.90
11762;DHT22;5938;47.098;15.474;2024-02-15T02:43:41;1.20;99.90
11762;DHT22;5938;47.098;15.474;2024-02-15T02:47:45;1.20;99.90
11762;DHT22;5938;47.098;15.474;2024-02-15T02:51:55;1.20;99.90
11762;DHT22;5938;47.098;15.474;2024-02-15T02:55:58;1.30;99.90
11762;DHT22;5938;47.098;15.474;2024-02-15T03:00:04;1.40;99.90
11762;DHT22;5938;47.098;15.474;2024-02-15T03:04:10;1.40;99.90
11762;DHT22;5938;47.098;15.474;2024-02-15T03:08:14;1.50;99.90
11762;DHT22;5938;47.098;15.474;2024-02-15T03:12:19;1.40;99.90
11762;DHT22;5938;47.098;15.474;2024-02-15T03:16:24;1.20;99.90
11762;DHT22;5938;47.098;15.474;2024-02-15T03:20:27;1.10;99.90
11762;DHT22;5938;47.098;15.474;2024-02-15T03:24:32;1.20;99.90
11762;DHT22;5938;47.098;15.474;2024-02-15T03:28:36;1.20;99.90
11762;DHT22;5938;47.098;15.474;2024-02-15T03:32:41;1.20;99.90
11762;DHT22;5938;47.098;15.474;2024-02-15T03:36:45;1.30;99.90
11762;DHT22;5938;47.098;15.474;2024-02-15T03:40:49;1.40;99.90
11762;DHT22;5938;47.098;15.474;2024-02-15T03:44:52;1.30;99.90
11762;DHT22;5938;47.098;15.474;2024-02-15T03:48:57;1.40;99.90
11762;DHT22;5938;47.098;15.474;2024-02-15T03:53:01;1.60;99.90
11762;DHT22;5938;47.098;15.474;2024-02-15T03:57:04;1.60;99.90
11762;DHT22;5938;47.098;15.474;2024-02-15T04:01:08;1.60;99.90
11762;DHT22;5938;47.098;15.474;2024-02-15T04:05:14;1.60;99.90
11762;DHT22;5938;47.098;15.474;2024-02-15T04:09:20;1.50;99.90
11762;DHT22;5938;47.098;15.474;2024-02-15T04:13:23;1.50;99.90
11762;DHT22;5938;47.098;15.474;2024-02-15T04:17:27;1.50;99.90
11762;DHT22;5938;47.098;15.474;2024-02-15T04:21:34;1.60;99.90
11762;DHT22;5938;47.098;15.474;2024-02-15T04:25:38;1.70;99.90
11762;DHT22;5938;47.098;15.474;2024-02-15T04:29:46;1.90;99.90
11762;DHT22;5938;47.098;15.474;2024-02-15T04:33:49;1.90;99.90
11762;DHT22;5938;47.098;15.474;2024-02-15T04:37:54;1.80;99.90
11762;DHT22;5938;47.098;15.474;2024-02-15T04:41:57;1.70;99.90
11762;DHT22;5938;47.098;15.474;2024-02-15T04:46:02;1.80;99.90
11762;DHT22;5938;47.098;15.474;2024-02-15T04:50:09;1.90;99.90
11762;DHT22;5938;47.098;15.474;2024-02-15T04:54:14;1.90;99.90
11762;DHT22;5938;47.098;15.474;2024-02-15T04:58:20;1.90;99.90
11762;DHT22;5938;47.098;15.474;2024-02-15T05:02:23;2.00;99.90
11762;DHT22;5938;47.098;15.474;2024-02-15T05:06:27;2.10;99.90
11762;DHT22;5938;47.098;15.474;2024-02-15T05:10:34;2.10;99.90
11762;DHT22;5938;47.098;15.474;2024-02-15T05:14:39;2.10;99.90
11762;DHT22;5938;47.098;15.474;2024-02-15T05:18:42;2.20;99.90
11762;DHT22;5938;47.098;15.474;2024-02-15T05:22:47;2.30;99.90
11762;DHT22;5938;47.098;15.474;2024-02-15T05:26:53;2.30;99.90
11762;DHT22;5938;47.098;15.474;2024-02-15T05:31:12;2.20;99.90
11762;DHT22;5938;47.098;15.474;2024-02-15T05:35:19;2.30;99.90
11762;DHT22;5938;47.098;15.474;2024-02-15T05:39:22;2.20;99.90
11762;DHT22;5938;47.098;15.474;2024-02-15T05:43:28;2.20;99.90
11762;DHT22;5938;47.098;15.474;2024-02-15T05:47:36;2.30;99.90
11762;DHT22;5938;47.098;15.474;2024-02-15T05:51:41;2.30;99.90
11762;DHT22;5938;47.098;15.474;2024-02-15T05:55:46;2.30;99.90
11762;DHT22;5938;47.098;15.474;2024-02-15T05:59:53;2.30;99.90
11762;DHT22;5938;47.098;15.474;2024-02-15T06:04:02;2.40;99.90
11762;DHT22;5938;47.098;15.474;2024-02-15T06:08:07;2.30;99.90
11762;DHT22;5938;47.098;15.474;2024-02-15T06:12:10;2.40;99.90
11762;DHT22;5938;47.098;15.474;2024-02-15T06:16:15;2.40;99.90
11762;DHT22;5938;47.098;15.474;2024-02-15T06:20:18;2.60;99.90
11762;DHT22;5938;47.098;15.474;2024-02-15T06:24:23;2.60;99.90
11762;DHT22;5938;47.098;15.474;2024-02-15T06:28:27;2.60;99.90
11762;DHT22;5938;47.098;15.474;2024-02-15T06:32:49;2.60;99.90
11762;DHT22;5938;47.098;15.474;2024-02-15T06:37:10;2.80;99.90
11762;DHT22;5938;47.098;15.474;2024-02-15T06:41:31;3.00;99.90
11762;DHT22;5938;47.098;15.474;2024-02-15T06:45:36;3.20;99.90
11762;DHT22;5938;47.098;15.474;2024-02-15T06:49:41;3.30;99.90
11762;DHT22;5938;47.098;15.474;2024-02-15T06:53:47;3.50;99.90
11762;DHT22;5938;47.098;15.474;2024-02-15T06:57:51;3.70;99.90
11762;DHT22;5938;47.098;15.474;2024-02-15T07:01:57;3.90;99.90
11762;DHT22;5938;47.098;15.474;2024-02-15T07:06:02;4.10;99.90
11762;DHT22;5938;47.098;15.474;2024-02-15T07:10:07;4.20;99.90
11762;DHT22;5938;47.098;15.474;2024-02-15T07:14:11;4.50;99.90
11762;DHT22;5938;47.098;15.474;2024-02-15T07:18:17;4.70;99.90
11762;DHT22;5938;47.098;15.474;2024-02-15T07:22:33;5.10;99.90
11762;DHT22;5938;47.098;15.474;2024-02-15T07:26:38;5.40;99.90
11762;DHT22;5938;47.098;15.474;2024-02-15T07:30:41;5.70;99.90
11762;DHT22;5938;47.098;15.474;2024-02-15T07:34:45;6.10;99.90
11762;DHT22;5938;47.098;15.474;2024-02-15T07:38:52;6.40;99.90
11762;DHT22;5938;47.098;15.474;2024-02-15T07:42:57;6.60;99.90
11762;DHT22;5938;47.098;15.474;2024-02-15T07:47:03;6.80;99.90
11762;DHT22;5938;47.098;15.474;2024-02-15T07:51:07;6.90;99.90
11762;DHT22;5938;47.098;15.474;2024-02-15T07:55:13;7.10;99.90
11762;DHT22;5938;47.098;15.474;2024-02-15T07:59:16;7.30;99.90
11762;DHT22;5938;47.098;15.474;2024-02-15T08:03:20;7.70;99.90
11762;DHT22;5938;47.098;15.474;2024-02-15T08:07:23;7.90;99.90
11762;DHT22;5938;47.098;15.474;2024-02-15T08:11:28;8.10;99.60
11762;DHT22;5938;47.098;15.474;2024-02-15T08:15:38;8.40;99.40
11762;DHT22;5938;47.098;15.474;2024-02-15T08:19:42;8.60;98.40
11762;DHT22;5938;47.098;15.474;2024-02-15T08:23:48;8.70;98.20
11762;DHT22;5938;47.098;15.474;2024-02-15T08:27:53;9.00;98.00
11762;DHT22;5938;47.098;15.474;2024-02-15T08:31:56;9.30;97.20
11762;DHT22;5938;47.098;15.474;2024-02-15T08:36:00;9.30;97.10
11762;DHT22;5938;47.098;15.474;2024-02-15T08:40:06;9.50;96.60
11762;DHT22;5938;47.098;15.474;2024-02-15T08:44:14;9.70;96.80
11762;DHT22;5938;47.098;15.474;2024-02-15T08:48:18;10.00;95.90
11762;DHT22;5938;47.098;15.474;2024-02-15T08:52:21;10.20;96.00
11762;DHT22;5938;47.098;15.474;2024-02-15T08:56:24;10.50;95.60
11762;DHT22;5938;47.098;15.474;2024-02-15T09:00:30;10.90;94.90
11762;DHT22;5938;47.098;15.474;2024-02-15T09:04:36;11.20;93.70
11762;DHT22;5938;47.098;15.474;2024-02-15T09:08:44;11.40;93.80
11762;DHT22;5938;47.098;15.474;2024-02-15T09:12:48;11.60;93.30
11762;DHT22;5938;47.098;15.474;2024-02-15T09:16:53;12.20;92.60
11762;DHT22;5938;47.098;15.474;2024-02-15T09:20:57;12.30;92.00
11762;DHT22;5938;47.098;15.474;2024-02-15T09:25:01;12.00;91.90
11762;DHT22;5938;47.098;15.474;2024-02-15T09:29:04;12.30;92.00
11762;DHT22;5938;47.098;15.474;2024-02-15T09:33:11;12.90;91.30
11762;DHT22;5938;47.098;15.474;2024-02-15T09:37:14;13.30;90.30
11762;DHT22;5938;47.098;15.474;2024-02-15T09:41:17;13.50;90.60
11762;DHT22;5938;47.098;15.474;2024-02-15T09:45:21;13.40;90.30
11762;DHT22;5938;47.098;15.474;2024-02-15T09:49:28;13.30;90.60
11762;DHT22;5938;47.098;15.474;2024-02-15T09:53:34;13.10;90.10
11762;DHT22;5938;47.098;15.474;2024-02-15T09:57:38;13.10;89.90
11762;DHT22;5938;47.098;15.474;2024-02-15T10:01:43;12.80;90.00
11762;DHT22;5938;47.098;15.474;2024-02-15T10:05:49;13.00;90.10
11762;DHT22;5938;47.098;15.474;2024-02-15T10:09:54;13.10;89.50
11762;DHT22;5938;47.098;15.474;2024-02-15T10:14:10;13.30;88.70
11762;DHT22;5938;47.098;15.474;2024-02-15T10:18:13;13.50;87.70
11762;DHT22;5938;47.098;15.474;2024-02-15T10:22:24;14.00;86.30
11762;DHT22;5938;47.098;15.474;2024-02-15T10:26:28;14.40;86.60
11762;DHT22;5938;47.098;15.474;2024-02-15T10:30:33;14.70;84.70
11762;DHT22;5938;47.098;15.474;2024-02-15T10:34:45;14.80;84.40
11762;DHT22;5938;47.098;15.474;2024-02-15T10:38:51;15.10;84.90
11762;DHT22;5938;47.098;15.474;2024-02-15T10:42:56;15.30;84.20
11762;DHT22;5938;47.098;15.474;2024-02-15T10:47:03;15.40;83.70
11762;DHT22;5938;47.098;15.474;2024-02-15T10:51:10;15.50;83.10
11762;DHT22;5938;47.098;15.474;2024-02-15T10:55:26;15.00;83.10
11762;DHT22;5938;47.098;15.474;2024-02-15T10:59:35;15.20;82.30
11762;DHT22;5938;47.098;15.474;2024-02-15T11:03:51;15.30;82.70
11762;DHT22;5938;47.098;15.474;2024-02-15T11:07:54;15.20;82.30
11762;DHT22;5938;47.098;15.474;2024-02-15T11:12:00;16.10;80.50
11762;DHT22;5938;47.098;15.474;2024-02-15T11:16:04;16.90;78.80
11762;DHT22;5938;47.098;15.474;2024-02-15T11:20:08;16.70;78.50
11762;DHT22;5938;47.098;15.474;2024-02-15T11:24:28;16.90;77.70
11762;DHT22;5938;47.098;15.474;2024-02-15T11:28:38;16.50;78.30
11762;DHT22;5938;47.098;15.474;2024-02-15T11:32:46;16.00;77.80
11762;DHT22;5938;47.098;15.474;2024-02-15T11:36:52;16.10;79.20
11762;DHT22;5938;47.098;15.474;2024-02-15T11:41:03;16.20;78.00
11762;DHT22;5938;47.098;15.474;2024-02-15T11:45:10;16.00;79.30
11762;DHT22;5938;47.098;15.474;2024-02-15T11:49:15;15.70;79.00
11762;DHT22;5938;47.098;15.474;2024-02-15T11:53:19;15.40;80.20
11762;DHT22;5938;47.098;15.474;2024-02-15T11:57:23;15.30;81.60
11762;DHT22;5938;47.098;15.474;2024-02-15T12:01:40;15.20;81.60
11762;DHT22;5938;47.098;15.474;2024-02-15T12:06:01;15.20;81.00
11762;DHT22;5938;47.098;15.474;2024-02-15T12:10:22;14.90;81.60
11762;DHT22;5938;47.098;15.474;2024-02-15T12:14:43;14.60;81.70
11762;DHT22;5938;47.098;15.474;2024-02-15T12:19:05;14.80;82.40
11762;DHT22;5938;47.098;15.474;2024-02-15T12:23:09;15.20;82.20
11762;DHT22;5938;47.098;15.474;2024-02-15T12:27:13;15.40;81.10
11762;DHT22;5938;47.098;15.474;2024-02-15T12:31:17;15.50;81.40
11762;DHT22;5938;47.098;15.474;2024-02-15T12:35:22;15.30;81.10
11762;DHT22;5938;47.098;15.474;2024-02-15T12:39:27;15.00;82.70
11762;DHT22;5938;47.098;15.474;2024-02-15T12:43:34;14.70;83.40
11762;DHT22;5938;47.098;15.474;2024-02-15T12:47:37;14.30;83.40
11762;DHT22;5938;47.098;15.474;2024-02-15T12:51:50;14.40;84.40
11762;DHT22;5938;47.098;15.474;2024-02-15T12:55:56;14.60;84.50
11762;DHT22;5938;47.098;15.474;2024-02-15T13:00:03;14.70;84.50
11762;DHT22;5938;47.098;15.474;2024-02-15T13:04:22;14.70;83.30
11762;DHT22;5938;47.098;15.474;2024-02-15T13:08:28;14.40;84.40
11762;DHT22;5938;47.098;15.474;2024-02-15T13:12:34;14.10;84.90
11762;DHT22;5938;47.098;15.474;2024-02-15T13:16:38;14.20;85.20
11762;DHT22;5938;47.098;15.474;2024-02-15T13:20:41;14.20;85.60
11762;DHT22;5938;47.098;15.474;2024-02-15T13:24:46;14.50;83.60
11762;DHT22;5938;47.098;15.474;2024-02-15T13:28:49;14.80;84.80
11762;DHT22;5938;47.098;15.474;2024-02-15T13:32:53;15.00;82.10
11762;DHT22;5938;47.098;15.474;2024-02-15T13:36:59;15.30;82.90
11762;DHT22;5938;47.098;15.474;2024-02-15T13:41:05;15.30;81.60
11762;DHT22;5938;47.098;15.474;2024-02-15T13:45:10;15.60;81.70
11762;DHT22;5938;47.098;15.474;2024-02-15T13:49:16;15.90;81.70
11762;DHT22;5938;47.098;15.474;2024-02-15T13:53:32;15.90;80.40
11762;DHT22;5938;47.098;15.474;2024-02-15T13:57:38;15.80;80.80
11762;DHT22;5938;47.098;15.474;2024-02-15T14:01:42;15.70;81.00
11762;DHT22;5938;47.098;15.474;2024-02-15T14:05:48;15.60;80.90
11762;DHT22;5938;47.098;15.474;2024-02-15T14:09:52;15.70;81.40
11762;DHT22;5938;47.098;15.474;2024-02-15T14:14:05;15.40;81.60
11762;DHT22;5938;47.098;15.474;2024-02-15T14:18:10;15.00;82.10
11762;DHT22;5938;47.098;15.474;2024-02-15T14:22:17;14.90;83.20
11762;DHT22;5938;47.098;15.474;2024-02-15T14:26:20;14.80;83.10
11762;DHT22;5938;47.098;15.474;2024-02-15T14:30:28;14.80;83.00
11762;DHT22;5938;47.098;15.474;2024-02-15T14:34:49;14.50;84.20
11762;DHT22;5938;47.098;15.474;2024-02-15T14:38:54;14.40;85.00
11762;DHT22;5938;47.098;15.474;2024-02-15T14:42:58;14.20;84.70
11762;DHT22;5938;47.098;15.474;2024-02-15T14:47:03;14.10;86.30
11762;DHT22;5938;47.098;15.474;2024-02-15T14:51:15;14.00;86.30
11762;DHT22;5938;47.098;15.474;2024-02-15T14:55:20;13.90;86.10
11762;DHT22;5938;47.098;15.474;2024-02-15T14:59:27;13.70;86.90
11762;DHT22;5938;47.098;15.474;2024-02-15T15:03:32;13.40;88.10
11762;DHT22;5938;47.098;15.474;2024-02-15T15:07:36;13.00;90.00
11762;DHT22;5938;47.098;15.474;2024-02-15T15:12:00;12.70;90.60
11762;DHT22;5938;47.098;15.474;2024-02-15T15:16:24;12.40;90.10
11762;DHT22;5938;47.098;15.474;2024-02-15T15:20:31;12.10;90.80
11762;DHT22;5938;47.098;15.474;2024-02-15T15:24:36;11.90;91.40
11762;DHT22;5938;47.098;15.474;2024-02-15T15:28:40;11.70;92.00
11762;DHT22;5938;47.098;15.474;2024-02-15T15:32:43;11.40;92.90
11762;DHT22;5938;47.098;15.474;2024-02-15T15:36:49;11.00;93.60
11762;DHT22;5938;47.098;15.474;2024-02-15T15:40:57;10.70;94.40
11762;DHT22;5938;47.098;15.474;2024-02-15T15:45:01;10.30;95.40
11762;DHT22;5938;47.098;15.474;2024-02-15T15:49:05;10.00;95.40
11762;DHT22;5938;47.098;15.474;2024-02-15T15:53:11;9.70;96.60
11762;DHT22;5938;47.098;15.474;2024-02-15T15:57:14;9.40;97.40
11762;DHT22;5938;47.098;15.474;2024-02-15T16:01:18;9.10;98.10
11762;DHT22;5938;47.098;15.474;2024-02-15T16:05:21;8.80;98.90
11762;DHT22;5938;47.098;15.474;2024-02-15T16:09:27;8.50;99.50
11762;DHT22;5938;47.098;15.474;2024-02-15T16:13:30;8.20;99.40
11762;DHT22;5938;47.098;15.474;2024-02-15T16:17:35;8.00;99.90
11762;DHT22;5938;47.098;15.474;2024-02-15T16:21:38;7.80;99.90
11762;DHT22;5938;47.098;15.474;2024-02-15T16:25:43;7.60;99.90
11762;DHT22;5938;47.098;15.474;2024-02-15T16:29:47;7.30;99.90
11762;DHT22;5938;47.098;15.474;2024-02-15T16:33:53;7.10;99.90
11762;DHT22;5938;47.098;15.474;2024-02-15T16:37:59;6.90;99.90
11762;DHT22;5938;47.098;15.474;2024-02-15T16:42:04;6.70;99.90
11762;DHT22;5938;47.098;15.474;2024-02-15T16:46:08;6.50;99.90
11762;DHT22;5938;47.098;15.474;2024-02-15T16:50:12;6.40;99.90
11762;DHT22;5938;47.098;15.474;2024-02-15T16:54:15;6.20;99.90
11762;DHT22;5938;47.098;15.474;2024-02-15T16:58:20;6.00;99.90
11762;DHT22;5938;47.098;15.474;2024-02-15T17:02:25;5.90;99.90
11762;DHT22;5938;47.098;15.474;2024-02-15T17:06:29;5.80;99.90
11762;DHT22;5938;47.098;15.474;2024-02-15T17:10:33;5.70;99.90
11762;DHT22;5938;47.098;15.474;2024-02-15T17:14:39;5.60;99.90
11762;DHT22;5938;47.098;15.474;2024-02-15T17:18:43;5.50;99.90
11762;DHT22;5938;47.098;15.474;2024-02-15T17:22:46;5.50;99.90
11762;DHT22;5938;47.098;15.474;2024-02-15T17:26:50;5.40;99.90
11762;DHT22;5938;47.098;15.474;2024-02-15T17:30:56;5.30;99.90
11762;DHT22;5938;47.098;15.474;2024-02-15T17:35:01;5.20;99.90
11762;DHT22;5938;47.098;15.474;2024-02-15T17:39:05;5.10;99.90
11762;DHT22;5938;47.098;15.474;2024-02-15T17:43:10;4.90;99.90
11762;DHT22;5938;47.098;15.474;2024-02-15T17:47:14;4.90;99.90
11762;DHT22;5938;47.098;15.474;2024-02-15T17:51:18;4.70;99.90
11762;DHT22;5938;47.098;15.474;2024-02-15T17:55:21;4.80;99.90
11762;DHT22;5938;47.098;15.474;2024-02-15T17:59:25;4.70;99.90
11762;DHT22;5938;47.098;15.474;2024-02-15T18:03:30;4.60;99.90
11762;DHT22;5938;47.098;15.474;2024-02-15T18:07:34;4.40;99.90
11762;DHT22;5938;47.098;15.474;2024-02-15T18:11:37;4.30;99.90
11762;DHT22;5938;47.098;15.474;2024-02-15T18:15:41;4.30;99.90
11762;DHT22;5938;47.098;15.474;2024-02-15T18:19:54;4.20;99.90
11762;DHT22;5938;47.098;15.474;2024-02-15T18:24:00;4.10;99.90
11762;DHT22;5938;47.098;15.474;2024-02-15T18:28:05;4.00;99.90
11762;DHT22;5938;47.098;15.474;2024-02-15T18:32:09;4.00;99.90
11762;DHT22;5938;47.098;15.474;2024-02-15T18:36:15;3.90;99.90
11762;DHT22;5938;47.098;15.474;2024-02-15T18:40:21;3.80;99.90
11762;DHT22;5938;47.098;15.474;2024-02-15T18:44:28;3.70;99.90
11762;DHT22;5938;47.098;15.474;2024-02-15T18:48:32;3.70;99.90
11762;DHT22;5938;47.098;15.474;2024-02-15T18:52:37;3.70;99.90
11762;DHT22;5938;47.098;15.474;2024-02-15T18:56:41;3.60;99.90
11762;DHT22;5938;47.098;15.474;2024-02-15T19:00:45;3.50;99.90
11762;DHT22;5938;47.098;15.474;2024-02-15T19:05:00;3.40;99.90
11762;DHT22;5938;47.098;15.474;2024-02-15T19:09:15;3.30;99.90
11762;DHT22;5938;47.098;15.474;2024-02-15T19:13:22;3.20;99.90
11762;DHT22;5938;47.098;15.474;2024-02-15T19:17:28;3.10;99.90
11762;DHT22;5938;47.098;15.474;2024-02-15T19:21:32;3.10;99.90
11762;DHT22;5938;47.098;15.474;2024-02-15T19:25:37;3.00;99.90
11762;DHT22;5938;47.098;15.474;2024-02-15T19:29:41;3.00;99.90
11762;DHT22;5938;47.098;15.474;2024-02-15T19:33:45;2.90;99.90
11762;DHT22;5938;47.098;15.474;2024-02-15T19:37:58;2.90;99.90
11762;DHT22;5938;47.098;15.474;2024-02-15T19:42:05;2.90;99.90
11762;DHT22;5938;47.098;15.474;2024-02-15T19:46:09;2.80;99.90
11762;DHT22;5938;47.098;15.474;2024-02-15T19:50:13;2.80;99.90
11762;DHT22;5938;47.098;15.474;2024-02-15T19:54:20;2.70;99.90
11762;DHT22;5938;47.098;15.474;2024-02-15T19:58:26;2.70;99.90
11762;DHT22;5938;47.098;15.474;2024-02-15T20:02:35;2.50;99.90
11762;DHT22;5938;47.098;15.474;2024-02-15T20:06:43;2.40;99.90
11762;DHT22;5938;47.098;15.474;2024-02-15T20:10:48;2.40;99.90
11762;DHT22;5938;47.098;15.474;2024-02-15T20:14:59;2.40;99.90
11762;DHT22;5938;47.098;15.474;2024-02-15T20:19:04;2.30;99.90
11762;DHT22;5938;47.098;15.474;2024-02-15T20:23:11;2.30;99.90
11762;DHT22;5938;47.098;15.474;2024-02-15T20:27:15;2.30;99.90
11762;DHT22;5938;47.098;15.474;2024-02-15T20:31:36;2.30;99.90
11762;DHT22;5938;47.098;15.474;2024-02-15T20:35:41;2.30;99.90
11762;DHT22;5938;47.098;15.474;2024-02-15T20:39:46;2.30;99.90
11762;DHT22;5938;47.098;15.474;2024-02-15T20:43:51;2.30;99.90
11762;DHT22;5938;47.098;15.474;2024-02-15T20:48:09;2.30;99.90
11762;DHT22;5938;47.098;15.474;2024-02-15T20:52:15;2.30;99.90
11762;DHT22;5938;47.098;15.474;2024-02-15T20:56:22;2.20;99.90
11762;DHT22;5938;47.098;15.474;2024-02-15T21:00:29;2.20;99.90
11762;DHT22;5938;47.098;15.474;2024-02-15T21:04:44;2.10;99.90
11762;DHT22;5938;47.098;15.474;2024-02-15T21:08:50;2.00;99.90
11762;DHT22;5938;47.098;15.474;2024-02-15T21:12:57;1.90;99.90
11762;DHT22;5938;47.098;15.474;2024-02-15T21:17:03;1.90;99.90
11762;DHT22;5938;47.098;15.474;2024-02-15T21:21:14;1.90;99.90
11762;DHT22;5938;47.098;15.474;2024-02-15T21:25:18;1.80;99.90
11762;DHT22;5938;47.098;15.474;2024-02-15T21:29:27;1.80;99.90
11762;DHT22;5938;47.098;15.474;2024-02-15T21:33:32;1.70;99.90
11762;DHT22;5938;47.098;15.474;2024-02-15T21:37:42;1.70;99.90
11762;DHT22;5938;47.098;15.474;2024-02-15T21:41:45;1.70;99.90
11762;DHT22;5938;47.098;15.474;2024-02-15T21:45:48;1.70;99.90
11762;DHT22;5938;47.098;15.474;2024-02-15T21:49:52;1.80;99.90
11762;DHT22;5938;47.098;15.474;2024-02-15T21:53:57;1.60;99.90
11762;DHT22;5938;47.098;15.474;2024-02-15T21:58:01;1.60;99.90
11762;DHT22;5938;47.098;15.474;2024-02-15T22:02:07;1.50;99.90
11762;DHT22;5938;47.098;15.474;2024-02-15T22:06:10;1.40;99.90
11762;DHT22;5938;47.098;15.474;2024-02-15T22:10:15;1.40;99.90
11762;DHT22;5938;47.098;15.474;2024-02-15T22:14:19;1.50;99.90
11762;DHT22;5938;47.098;15.474;2024-02-15T22:18:22;1.40;99.90
11762;DHT22;5938;47.098;15.474;2024-02-15T22:22:27;1.30;99.90
11762;DHT22;5938;47.098;15.474;2024-02-15T22:26:32;1.30;99.90
11762;DHT22;5938;47.098;15.474;2024-02-15T22:30:35;1.20;99.90
11762;DHT22;5938;47.098;15.474;2024-02-15T22:34:39;1.30;99.90
11762;DHT22;5938;47.098;15.474;2024-02-15T22:38:42;1.20;99.90
11762;DHT22;5938;47.098;15.474;2024-02-15T22:42:47;1.10;99.90
11762;DHT22;5938;47.098;15.474;2024-02-15T22:46:50;1.00;99.90
11762;DHT22;5938;47.098;15.474;2024-02-15T22:50:56;1.00;99.90
11762;DHT22;5938;47.098;15.474;2024-02-15T22:55:04;1.00;99.90
11762;DHT22;5938;47.098;15.474;2024-02-15T22:59:09;1.00;99.90
11762;DHT22;5938;47.098;15.474;2024-02-15T23:03:14;0.90;99.90
11762;DHT22;5938;47.098;15.474;2024-02-15T23:07:18;0.70;99.90
11762;DHT22;5938;47.098;15.474;2024-02-15T23:11:25;1.00;99.90
11762;DHT22;5938;47.098;15.474;2024-02-15T23:15:31;0.90;99.90
11762;DHT22;5938;47.098;15.474;2024-02-15T23:19:36;0.70;99.90
11762;DHT22;5938;47.098;15.474;2024-02-15T23:23:41;0.70;99.90
11762;DHT22;5938;47.098;15.474;2024-02-15T23:27:48;0.70;99.90
11762;DHT22;5938;47.098;15.474;2024-02-15T23:31:52;0.70;99.90
11762;DHT22;5938;47.098;15.474;2024-02-15T23:35:57;0.60;99.90
11762;DHT22;5938;47.098;15.474;2024-02-15T23:40:18;0.60;99.90
11762;DHT22;5938;47.098;15.474;2024-02-15T23:44:32;0.50;99.90
11762;DHT22;5938;47.098;15.474;2024-02-15T23:48:37;0.50;99.90
11762;DHT22;5938;47.098;15.474;2024-02-15T23:52:42;0.40;99.90
11762;DHT22;5938;47.098;15.474;2024-02-15T23:56:48;0.40;99.90
